createdAt,value
2023-05-13T00:03:38.874Z,59.24
2023-05-13T00:08:40.404Z,58.47
2023-05-13T00:13:41.841Z,59.01
2023-05-13T00:18:43.365Z,58.98
2023-05-13T00:23:44.917Z,58.35
2023-05-13T00:28:46.361Z,60.10
2023-05-13T00:33:47.801Z,59.52
2023-05-13T00:38:49.533Z,58.41
2023-05-13T00:43:54.325Z,59.94
2023-05-13T00:48:55.892Z,58.39
2023-05-13T00:53:59.664Z,60.69
2023-05-13T00:59:01.114Z,60.01
2023-05-13T01:04:13.067Z,58.90
2023-05-13T01:09:26.860Z,58.64
2023-05-13T01:14:34.128Z,59.74
2023-05-13T01:19:39.924Z,59.87
2023-05-13T01:24:41.725Z,60.02
2023-05-13T01:29:44.609Z,58.36
2023-05-13T01:34:50.197Z,59.97
2023-05-13T01:39:51.833Z,60.47
2023-05-13T01:44:53.529Z,60.89
2023-05-13T01:49:56.131Z,60.38
2023-05-13T01:54:57.703Z,60.14
2023-05-13T01:59:59.250Z,59.25
2023-05-13T02:05:00.818Z,59.43
2023-05-13T02:10:02.276Z,60.49
2023-05-13T02:15:04.169Z,59.78
2023-05-13T02:20:06.422Z,57.95
2023-05-13T02:25:08.620Z,58.54
2023-05-13T02:30:12.817Z,60.91
2023-05-13T02:35:15.033Z,62.78
2023-05-13T02:40:16.820Z,61.72
2023-05-13T02:45:20.371Z,60.22
2023-05-13T02:50:26.872Z,61.86
2023-05-13T02:55:29.731Z,60.46
2023-05-13T03:00:32.869Z,59.90
2023-05-13T03:05:34.552Z,60.14
2023-05-13T03:10:36.029Z,60.32
2023-05-13T03:15:37.603Z,60.13
2023-05-13T03:20:39.132Z,59.29
2023-05-13T03:25:40.733Z,59.40
2023-05-13T03:30:42.583Z,60.12
2023-05-13T03:35:49.722Z,58.51
2023-05-13T03:40:54.028Z,64.52
2023-05-13T03:45:55.745Z,64.08
2023-05-13T03:50:58.416Z,62.43
2023-05-13T03:56:00.270Z,61.42
2023-05-13T04:01:03.054Z,62.91
2023-05-13T04:06:04.626Z,61.79
2023-05-13T04:11:06.143Z,61.65
2023-05-13T04:16:07.673Z,60.61
2023-05-13T04:21:09.772Z,60.76
2023-05-13T04:26:11.358Z,60.95
2023-05-13T04:31:12.920Z,60.55
2023-05-13T04:36:15.595Z,60.54
2023-05-13T04:41:18.236Z,60.95
2023-05-13T04:46:21.137Z,61.49
2023-05-13T04:51:25.272Z,64.31
2023-05-13T04:56:27.334Z,68.20
2023-05-13T05:01:29.615Z,66.77
2023-05-13T05:06:32.556Z,67.17
2023-05-13T05:11:34.131Z,66.44
2023-05-13T05:16:36.415Z,67.65
2023-05-13T05:21:38.927Z,63.79
2023-05-13T05:26:42.800Z,69.21
2023-05-13T05:31:45.250Z,68.29
2023-05-13T05:36:46.890Z,67.75
2023-05-13T05:41:50.246Z,69.18
2023-05-13T05:46:53.042Z,68.24
2023-05-13T05:51:54.557Z,69.18
2023-05-13T05:56:56.668Z,67.17
2023-05-13T06:01:58.245Z,67.09
2023-05-13T06:06:59.856Z,65.84
2023-05-13T06:12:01.906Z,66.03
2023-05-13T06:17:06.979Z,62.05
2023-05-13T06:22:11.264Z,60.02
2023-05-13T06:27:12.743Z,62.66
2023-05-13T06:32:14.462Z,60.79
2023-05-13T06:37:15.918Z,63.11
2023-05-13T06:42:18.164Z,60.16
2023-05-13T06:47:26.514Z,61.83
2023-05-13T06:52:28.048Z,61.17
2023-05-13T06:57:41.231Z,60.36
2023-05-13T07:02:43.926Z,60.43
2023-05-13T07:07:45.950Z,60.14
2023-05-13T07:12:47.414Z,60.63
2023-05-13T07:17:48.957Z,59.90
2023-05-13T07:22:50.965Z,59.91
2023-05-13T07:27:52.433Z,59.32
2023-05-13T07:32:54.225Z,58.26
2023-05-13T07:37:55.801Z,58.78
2023-05-13T07:42:57.269Z,57.80
2023-05-13T07:47:58.749Z,60.74
2023-05-13T07:53:00.262Z,59.88
2023-05-13T07:58:01.839Z,56.01
2023-05-13T08:03:04.079Z,58.32
2023-05-13T08:08:06.920Z,56.27
2023-05-13T08:13:08.380Z,52.86
2023-05-13T08:18:09.884Z,53.73
2023-05-13T08:23:11.533Z,56.92
2023-05-13T08:28:13.046Z,51.77
2023-05-13T08:33:14.534Z,53.52
2023-05-13T08:38:15.990Z,56.96
2023-05-13T08:43:19.337Z,60.13
2023-05-13T08:48:23.414Z,51.47
2023-05-13T08:53:26.239Z,50.92
2023-05-13T08:58:28.019Z,56.21
2023-05-13T09:03:29.544Z,56.49
2023-05-13T09:08:32.688Z,58.14
2023-05-13T09:13:34.171Z,57.22
2023-05-13T09:18:35.920Z,50.86
2023-05-13T09:23:37.548Z,50.81
2023-05-13T09:28:38.999Z,55.77
2023-05-13T09:33:52.213Z,57.26
2023-05-13T09:38:55.262Z,54.34
2023-05-13T09:43:58.521Z,45.28
2023-05-13T09:49:01.596Z,59.47
2023-05-13T09:54:04.534Z,53.93
2023-05-13T09:59:06.117Z,54.42
2023-05-13T10:04:08.374Z,46.83
2023-05-13T10:09:10.511Z,55.97
2023-05-13T10:14:12.105Z,48.85
2023-05-13T10:19:14.001Z,48.49
2023-05-13T10:24:16.050Z,53.80
2023-05-13T10:29:18.163Z,58.10
2023-05-13T10:34:19.766Z,44.16
2023-05-13T10:39:56.020Z,44.86
2023-05-13T10:45:01.397Z,50.75
2023-05-13T10:50:06.450Z,44.33
2023-05-13T10:55:15.649Z,53.81
2023-05-13T11:00:20.019Z,47.97
2023-05-13T11:05:21.825Z,49.01
2023-05-13T11:10:30.555Z,53.23
2023-05-13T11:15:52.929Z,46.42
2023-05-13T11:20:54.631Z,50.16
2023-05-13T11:26:18.929Z,49.97
2023-05-13T11:31:21.508Z,43.12
2023-05-13T11:36:29.743Z,46.72
2023-05-13T11:41:33.256Z,50.63
2023-05-13T11:46:35.059Z,46.77
2023-05-13T11:51:36.683Z,61.28
2023-05-13T11:56:42.824Z,60.98
2023-05-13T12:01:44.753Z,54.94
2023-05-13T12:06:46.485Z,54.70
2023-05-13T12:11:48.660Z,55.57
2023-05-13T12:16:50.600Z,49.11
2023-05-13T12:21:52.045Z,57.38
2023-05-13T12:27:04.073Z,55.06
2023-05-13T12:32:06.283Z,49.53
2023-05-13T12:37:14.774Z,47.36
2023-05-13T12:42:17.811Z,51.82
2023-05-13T12:47:20.167Z,46.32
2023-05-13T12:52:22.059Z,45.50
2023-05-13T12:57:24.359Z,45.31
2023-05-13T13:02:26.021Z,47.33
2023-05-13T13:07:27.580Z,48.03
2023-05-13T13:12:29.045Z,54.19
2023-05-13T13:17:30.595Z,49.63
2023-05-13T13:22:32.249Z,47.13
2023-05-13T13:27:34.690Z,55.72
2023-05-13T13:32:36.203Z,49.87
2023-05-13T13:37:38.129Z,49.50
2023-05-13T13:42:44.654Z,50.64
2023-05-13T13:47:46.751Z,50.27
2023-05-13T13:52:48.250Z,49.89
2023-05-13T13:57:49.911Z,50.96
2023-05-13T14:02:51.541Z,48.24
2023-05-13T14:07:54.121Z,46.18
2023-05-13T14:12:55.636Z,49.92
2023-05-13T14:17:57.543Z,53.50
2023-05-13T14:22:59.026Z,50.26
2023-05-13T14:28:00.481Z,52.32
2023-05-13T14:33:02.235Z,49.23
2023-05-13T14:38:03.711Z,48.90
2023-05-13T14:43:05.205Z,55.42
2023-05-13T14:48:06.692Z,52.02
2023-05-13T14:53:08.278Z,51.35
2023-05-13T14:58:09.975Z,50.39
2023-05-13T15:08:13.252Z,54.11
2023-05-13T15:13:14.734Z,57.79
2023-05-13T15:18:16.202Z,56.26
2023-05-13T15:23:17.785Z,54.85
2023-05-13T15:28:19.278Z,52.41
2023-05-13T15:33:20.792Z,53.31
2023-05-13T15:38:22.277Z,53.28
2023-05-13T15:43:23.864Z,51.79
2023-05-13T15:48:25.345Z,50.25
2023-05-13T15:53:26.821Z,52.54
2023-05-13T15:58:28.258Z,52.54
2023-05-13T16:03:29.690Z,54.86
2023-05-13T16:08:31.151Z,55.16
2023-05-13T16:13:32.611Z,54.33
2023-05-13T16:18:34.083Z,54.33
2023-05-13T16:23:35.596Z,56.69
2023-05-13T16:28:37.127Z,57.52
2023-05-13T16:33:38.559Z,57.07
2023-05-13T16:38:41.451Z,54.44
2023-05-13T16:43:43.034Z,55.02
2023-05-13T16:48:44.700Z,55.66
2023-05-13T16:53:46.215Z,54.85
2023-05-13T16:58:47.667Z,55.41
2023-05-13T17:03:49.123Z,53.66
2023-05-13T17:08:50.783Z,53.61
2023-05-13T17:13:52.228Z,51.85
2023-05-13T17:18:53.847Z,54.18
2023-05-13T17:23:55.434Z,56.69
2023-05-13T17:28:56.884Z,55.40
2023-05-13T17:33:58.403Z,54.82
2023-05-13T17:38:59.876Z,55.71
2023-05-13T17:44:02.314Z,54.75
2023-05-13T17:49:04.355Z,54.64
2023-05-13T17:54:05.908Z,54.14
2023-05-13T17:59:07.378Z,53.99
2023-05-13T18:04:08.824Z,55.64
2023-05-13T18:09:10.332Z,53.97
2023-05-13T18:14:11.779Z,54.52
2023-05-13T18:19:13.263Z,53.58
2023-05-13T18:24:14.727Z,54.17
2023-05-13T18:29:16.202Z,55.23
2023-05-13T18:34:17.630Z,54.30
2023-05-13T18:39:19.356Z,54.04
2023-05-13T18:44:20.810Z,54.31
2023-05-13T18:49:28.124Z,55.66
2023-05-13T18:54:29.576Z,55.57
2023-05-13T18:59:31.343Z,54.74
2023-05-13T19:04:33.058Z,54.16
2023-05-13T19:09:35.953Z,54.27
2023-05-13T19:14:37.403Z,54.53
2023-05-13T19:19:38.837Z,54.64
2023-05-13T19:24:40.317Z,54.61
2023-05-13T19:29:41.766Z,54.64
2023-05-13T19:34:43.194Z,54.58
2023-05-13T19:39:45.550Z,55.26
2023-05-13T19:44:47.010Z,54.99
2023-05-13T19:49:48.444Z,54.62
2023-05-13T19:54:49.958Z,55.13
2023-05-13T19:59:52.239Z,55.29
2023-05-13T20:04:53.685Z,54.92
2023-05-13T20:09:55.482Z,56.08
2023-05-13T20:14:58.249Z,55.81
2023-05-13T20:19:59.708Z,56.40
2023-05-13T20:25:01.164Z,57.04
2023-05-13T20:30:03.144Z,56.39
2023-05-13T20:35:05.030Z,56.70
2023-05-13T20:40:07.376Z,56.79
2023-05-13T20:45:09.075Z,56.36
2023-05-13T20:50:11.143Z,56.71
2023-05-13T20:55:14.620Z,57.35
2023-05-13T21:00:17.040Z,57.22
2023-05-13T21:05:18.626Z,57.57
2023-05-13T21:10:20.196Z,57.35
2023-05-13T21:15:21.679Z,57.05
2023-05-13T21:20:23.359Z,58.27
2023-05-13T21:25:25.021Z,57.75
2023-05-13T21:30:26.599Z,57.85
2023-05-13T21:35:28.042Z,57.72
2023-05-13T21:40:29.598Z,57.94
2023-05-13T21:45:31.060Z,59.37
2023-05-13T21:50:35.611Z,60.39
2023-05-13T21:55:37.058Z,58.68
2023-05-13T22:00:38.495Z,58.07
2023-05-13T22:05:43.940Z,59.70
2023-05-13T22:10:45.416Z,59.83
2023-05-13T22:15:47.211Z,58.81
2023-05-13T22:20:48.759Z,58.59
2023-05-13T22:25:50.622Z,58.91
2023-05-13T22:30:52.083Z,59.73
2023-05-13T22:35:53.554Z,59.02
2023-05-13T22:40:54.999Z,58.90
2023-05-13T22:45:56.473Z,61.71
2023-05-13T22:50:58.385Z,60.55
2023-05-13T22:55:59.876Z,60.57
2023-05-13T23:01:01.381Z,60.76
2023-05-13T23:06:03.029Z,60.34
2023-05-13T23:11:04.624Z,59.04
2023-05-13T23:16:06.326Z,59.70
2023-05-13T23:21:09.115Z,60.09
2023-05-13T23:26:10.624Z,60.38
2023-05-13T23:31:12.213Z,59.81
2023-05-13T23:36:15.702Z,59.96
2023-05-13T23:41:17.131Z,61.32
2023-05-13T23:46:18.620Z,62.08
2023-05-13T23:51:20.782Z,59.54
2023-05-13T23:56:22.237Z,60.42
